Time;durP1;ratioP1;P1;durP2;ratioP2;P2;SDS_P1;SDS_P2;PMS_P1;PMS_P2;Temp;Humidity;BMP_temperature;BMP_pressure;BME280_temperature;BME280_humidity;BME280_pressure;Samples;Min_cycle;Max_cycle;Signal;HPM_P1;HPM_P2
2022/09/03 00:01:23;;;;;;;2.17;1.90;;;22.20;38.30;;;;;;5075117;28;20931;-69
2022/09/03 00:03:55;;;;;;;2.47;1.40;;;22.10;38.40;;;;;;5075086;28;20469;-70
2022/09/03 00:06:30;;;;;;;2.80;1.70;;;22.00;38.30;;;;;;5075322;28;20487;-70
2022/09/03 00:09:03;;;;;;;3.03;1.90;;;22.00;38.10;;;;;;5075289;28;20433;-68
2022/09/03 00:11:38;;;;;;;4.03;1.80;;;22.00;38.00;;;;;;5074942;28;20430;-69
2022/09/03 00:14:10;;;;;;;2.97;2.00;;;22.00;38.30;;;;;;5075151;28;20879;-69
2022/09/03 00:16:46;;;;;;;2.47;2.27;;;22.00;38.30;;;;;;5075160;28;20476;-68
2022/09/03 00:19:17;;;;;;;2.90;1.90;;;21.90;37.70;;;;;;5075159;28;20803;-68
2022/09/03 00:21:48;;;;;;;2.57;1.57;;;21.90;38.20;;;;;;5074908;28;20433;-68
2022/09/03 00:24:20;;;;;;;1.70;1.60;;;21.90;38.50;;;;;;5075067;28;20495;-69
2022/09/03 00:26:52;;;;;;;2.73;1.30;;;21.80;38.60;;;;;;5074905;28;20452;-69
2022/09/03 00:29:24;;;;;;;1.77;1.67;;;21.80;38.70;;;;;;5074667;28;20924;-69
2022/09/03 00:31:55;;;;;;;1.80;1.70;;;21.80;38.70;;;;;;5074491;28;20513;-68
2022/09/03 00:34:26;;;;;;;2.30;2.10;;;21.80;38.80;;;;;;5074721;28;20512;-68
2022/09/03 00:36:54;;;;;;;2.13;1.80;;;21.80;38.80;;;;;;5074454;28;20529;-70
2022/09/03 00:39:23;;;;;;;3.50;2.20;;;21.80;38.90;;;;;;5074776;28;20445;-68
2022/09/03 00:42:06;;;;;;;4.37;2.47;;;21.70;39.00;;;;;;5074282;28;21057;-70
2022/09/03 00:44:48;;;;;;;1.97;1.77;;;21.70;39.20;;;;;;5074609;28;20437;-70
2022/09/03 00:47:24;;;;;;;4.50;2.23;;;21.70;39.00;;;;;;5074527;28;20429;-70
2022/09/03 00:50:01;;;;;;;2.80;2.30;;;21.70;39.20;;;;;;5074454;28;20476;-69
2022/09/03 00:52:43;;;;;;;5.77;1.80;;;21.70;39.00;;;;;;5074270;28;20479;-69
2022/09/03 00:55:22;;;;;;;2.40;2.20;;;21.70;39.10;;;;;;5074547;28;20503;-69
2022/09/03 00:58:01;;;;;;;2.70;1.63;;;21.70;39.00;;;;;;5074442;28;20430;-69
2022/09/03 01:00:29;;;;;;;3.20;1.90;;;21.60;38.90;;;;;;5074355;28;20425;-69
2022/09/03 01:03:06;;;;;;;2.90;1.87;;;21.60;39.10;;;;;;5074249;28;20473;-68
2022/09/03 01:05:50;;;;;;;2.57;1.93;;;21.60;39.00;;;;;;5074572;28;20432;-68
2022/09/03 01:08:34;;;;;;;4.30;2.13;;;21.60;39.00;;;;;;5074118;28;20433;-68
2022/09/03 01:11:15;;;;;;;4.80;1.67;;;21.60;39.00;;;;;;5073801;28;20432;-69
2022/09/03 01:13:46;;;;;;;6.40;1.70;;;21.60;39.30;;;;;;5073756;28;20844;-69
2022/09/03 01:16:25;;;;;;;4.83;2.10;;;21.50;39.30;;;;;;5074025;28;20432;-70
2022/09/03 01:18:59;;;;;;;2.20;1.63;;;21.50;39.20;;;;;;5073686;28;20428;-70
2022/09/03 01:21:47;;;;;;;9.87;2.80;;;21.50;39.10;;;;;;5073933;28;20421;-68
2022/09/03 01:24:48;;;;;;;2.63;2.07;;;21.50;39.50;;;;;;5073813;28;20516;-69
2022/09/03 01:27:30;;;;;;;2.47;1.80;;;21.50;39.50;;;;;;5073727;28;20479;-69
2022/09/03 01:30:04;;;;;;;2.63;2.00;;;21.50;39.70;;;;;;5073800;28;20809;-69
2022/09/03 01:32:41;;;;;;;2.13;1.83;;;21.40;39.60;;;;;;5073486;28;20972;-69
2022/09/03 01:35:15;;;;;;;2.50;1.77;;;21.40;39.90;;;;;;5074054;28;20444;-70
2022/09/03 01:37:57;;;;;;;2.40;1.67;;;21.30;39.90;;;;;;5073637;28;20464;-69
2022/09/03 01:40:30;;;;;;;2.43;1.57;;;21.30;39.90;;;;;;5073769;28;20853;-68
2022/09/03 01:43:14;;;;;;;5.60;1.77;;;21.30;39.80;;;;;;5074413;28;20469;-69
2022/09/03 01:45:52;;;;;;;3.20;1.63;;;21.20;39.80;;;;;;5073748;28;20494;-69
2022/09/03 01:48:40;;;;;;;1.93;1.73;;;21.20;39.90;;;;;;5073645;28;20817;-69
2022/09/03 01:51:17;;;;;;;3.80;2.30;;;21.20;40.00;;;;;;5073714;28;20441;-69
2022/09/03 01:54:12;;;;;;;10.60;2.20;;;21.10;39.90;;;;;;5073355;28;20833;-69
2022/09/03 01:57:01;;;;;;;3.47;1.50;;;21.10;39.80;;;;;;5073355;28;20806;-70
2022/09/03 01:59:31;;;;;;;1.70;1.60;;;21.10;40.60;;;;;;5073645;28;20444;-69
2022/09/03 02:02:05;;;;;;;2.40;1.87;;;21.10;40.00;;;;;;5073860;28;20433;-68
2022/09/03 02:04:32;;;;;;;3.20;1.97;;;21.10;39.90;;;;;;5074073;28;20521;-69
2022/09/03 02:07:00;;;;;;;3.57;1.70;;;21.10;39.70;;;;;;5074493;28;20495;-69
2022/09/03 02:09:28;;;;;;;1.50;1.40;;;21.10;39.60;;;;;;5074462;28;20445;-68
2022/09/03 02:11:59;;;;;;;4.40;2.07;;;21.10;39.70;;;;;;5074040;28;20476;-69
2022/09/03 02:14:28;;;;;;;4.10;1.60;;;21.00;39.80;;;;;;5073880;28;20456;-69
2022/09/03 02:16:57;;;;;;;2.60;1.67;;;21.00;39.80;;;;;;5073193;28;20932;-68
2022/09/03 02:19:29;;;;;;;5.97;2.17;;;21.00;40.00;;;;;;5073990;28;20463;-69
2022/09/03 02:21:57;;;;;;;5.20;2.10;;;21.00;40.00;;;;;;5073262;28;20430;-69
2022/09/03 02:24:25;;;;;;;2.40;1.77;;;21.00;40.20;;;;;;5073307;28;20445;-69
2022/09/03 02:26:53;;;;;;;3.10;1.97;;;21.00;40.40;;;;;;5073203;28;20480;-69
2022/09/03 02:29:21;;;;;;;6.93;1.90;;;20.90;40.50;;;;;;5073172;28;20445;-69
2022/09/03 02:31:48;;;;;;;3.40;1.80;;;20.90;40.60;;;;;;5073191;28;20456;-69
2022/09/03 02:34:14;;;;;;;4.23;2.00;;;20.90;40.70;;;;;;5073082;28;20457;-69
2022/09/03 02:36:45;;;;;;;2.33;2.13;;;20.90;40.70;;;;;;5072693;28;20445;-69
2022/09/03 02:39:12;;;;;;;2.90;1.60;;;20.80;40.70;;;;;;5073267;28;20510;-69
2022/09/03 02:41:40;;;;;;;3.23;1.90;;;20.80;41.00;;;;;;5073014;28;20442;-70
2022/09/03 02:44:12;;;;;;;1.77;1.43;;;20.80;40.90;;;;;;5073116;28;20491;-69
2022/09/03 02:46:44;;;;;;;2.27;1.50;;;20.80;41.10;;;;;;5073000;28;20437;-69
2022/09/03 02:49:11;;;;;;;3.53;1.60;;;20.80;41.20;;;;;;5072804;28;20816;-69
2022/09/03 02:51:40;;;;;;;2.17;1.80;;;20.80;41.10;;;;;;5072908;28;20459;-69
2022/09/03 02:54:09;;;;;;;3.20;1.30;;;20.70;41.30;;;;;;5073039;28;20484;-69
2022/09/03 02:56:36;;;;;;;1.77;1.30;;;20.70;41.20;;;;;;5073189;28;20471;-69
2022/09/03 02:59:04;;;;;;;1.37;1.27;;;20.70;41.10;;;;;;5072927;28;20444;-69
2022/09/03 03:01:32;;;;;;;1.60;1.47;;;20.70;41.30;;;;;;5072968;28;20449;-69
2022/09/03 03:03:59;;;;;;;1.90;1.80;;;20.70;41.20;;;;;;5073131;28;20472;-68
2022/09/03 03:06:26;;;;;;;2.17;1.33;;;20.70;41.30;;;;;;5073134;28;20451;-69
2022/09/03 03:08:55;;;;;;;1.50;1.40;;;20.60;41.20;;;;;;5072600;28;20481;-69
2022/09/03 03:11:25;;;;;;;1.37;1.27;;;20.60;41.30;;;;;;5072753;28;20452;-68
2022/09/03 03:13:52;;;;;;;1.73;1.20;;;20.60;41.30;;;;;;5072893;28;20484;-69
2022/09/03 03:16:19;;;;;;;1.40;1.27;;;20.60;41.40;;;;;;5075934;28;20440;-69
2022/09/03 03:18:45;;;;;;;2.80;1.33;;;20.50;41.50;;;;;;5076613;28;20445;-68
2022/09/03 03:21:15;;;;;;;3.30;1.57;;;20.50;41.70;;;;;;5076629;28;20444;-68
2022/09/03 03:23:43;;;;;;;1.53;1.43;;;20.50;41.70;;;;;;5076413;28;20492;-69
2022/09/03 03:26:12;;;;;;;8.37;1.50;;;20.50;41.50;;;;;;5076392;28;20436;-68
2022/09/03 03:28:41;;;;;;;1.90;1.37;;;20.50;41.60;;;;;;5075913;28;20549;-70
2022/09/03 03:31:08;;;;;;;1.80;1.30;;;20.50;41.80;;;;;;5075876;28;20515;-70
2022/09/03 03:33:35;;;;;;;3.23;1.23;;;20.40;41.80;;;;;;5076279;28;20480;-69
2022/09/03 03:36:05;;;;;;;2.57;1.40;;;20.40;41.90;;;;;;5076444;28;20456;-70
2022/09/03 03:38:31;;;;;;;1.20;1.10;;;20.40;42.00;;;;;;5075962;28;20518;-69
2022/09/03 03:40:58;;;;;;;1.57;1.10;;;20.40;42.00;;;;;;5076251;28;20441;-69
2022/09/03 03:43:25;;;;;;;1.10;0.93;;;20.40;42.20;;;;;;5076103;28;20567;-69
2022/09/03 03:45:57;;;;;;;1.60;1.30;;;20.30;42.10;;;;;;5076147;28;20425;-69
2022/09/03 03:48:24;;;;;;;3.40;1.53;;;20.30;42.10;;;;;;5075798;28;20477;-69
2022/09/03 03:50:51;;;;;;;1.27;1.13;;;20.30;42.10;;;;;;5075711;28;20449;-69
2022/09/03 03:53:18;;;;;;;3.53;1.20;;;20.30;42.20;;;;;;5075727;28;20843;-69
2022/09/03 03:55:55;;;;;;;1.40;1.27;;;20.30;42.20;;;;;;5075663;28;20943;-69
2022/09/03 03:58:23;;;;;;;2.57;1.37;;;20.30;42.40;;;;;;5075548;28;20911;-69
2022/09/03 04:00:50;;;;;;;1.43;1.10;;;20.20;42.30;;;;;;5075795;28;20453;-69
2022/09/03 04:03:19;;;;;;;1.20;1.10;;;20.20;42.40;;;;;;5075847;28;20465;-69
2022/09/03 04:05:55;;;;;;;1.23;1.13;;;20.20;42.70;;;;;;5075778;28;20466;-69
2022/09/03 04:08:22;;;;;;;2.03;0.90;;;20.10;42.60;;;;;;5075632;28;20542;-69
2022/09/03 04:10:49;;;;;;;1.17;1.07;;;20.10;42.50;;;;;;5075887;28;20437;-69
2022/09/03 04:13:16;;;;;;;1.20;1.00;;;20.10;42.50;;;;;;5075542;28;20466;-69
2022/09/03 04:15:43;;;;;;;1.53;1.20;;;20.10;42.50;;;;;;5075228;28;20973;-69
2022/09/03 04:18:09;;;;;;;1.80;1.20;;;20.10;42.60;;;;;;5075506;28;20449;-69
2022/09/03 04:20:38;;;;;;;2.10;1.50;;;20.10;42.60;;;;;;5075709;28;20441;-69
2022/09/03 04:23:05;;;;;;;2.10;1.40;;;20.10;42.70;;;;;;5075342;28;20468;-69
2022/09/03 04:25:32;;;;;;;0.93;0.93;;;20.00;42.70;;;;;;5075020;28;20444;-69
2022/09/03 04:27:59;;;;;;;1.33;1.00;;;20.10;42.70;;;;;;5075254;28;20526;-69
2022/09/03 04:30:26;;;;;;;2.13;1.33;;;20.10;42.60;;;;;;5075545;28;20528;-69
2022/09/03 04:32:53;;;;;;;2.27;1.10;;;20.00;42.50;;;;;;5075315;28;20872;-68
2022/09/03 04:35:20;;;;;;;2.40;1.20;;;20.00;42.70;;;;;;5075371;28;20537;-69
2022/09/03 04:37:48;;;;;;;1.20;1.10;;;20.00;42.80;;;;;;5074707;28;20452;-69
2022/09/03 04:40:16;;;;;;;3.77;1.50;;;20.00;42.90;;;;;;5075186;28;20936;-69
2022/09/03 04:42:43;;;;;;;1.43;1.33;;;20.00;43.00;;;;;;5075813;28;20495;-68
2022/09/03 04:45:10;;;;;;;2.30;1.10;;;20.00;42.90;;;;;;5075103;28;20908;-68
2022/09/03 04:47:37;;;;;;;2.13;1.23;;;20.00;42.90;;;;;;5075386;28;20493;-70
2022/09/03 04:50:05;;;;;;;1.00;0.90;;;20.00;43.00;;;;;;5075280;28;20471;-69
2022/09/03 04:52:32;;;;;;;1.03;0.90;;;20.00;42.90;;;;;;5075497;28;20475;-69
2022/09/03 04:55:01;;;;;;;1.30;1.07;;;20.00;42.80;;;;;;5075364;28;20457;-69
2022/09/03 04:57:33;;;;;;;1.30;1.10;;;20.00;43.20;;;;;;5075028;28;20452;-69
2022/09/03 04:59:59;;;;;;;2.47;1.30;;;20.00;43.10;;;;;;5075358;28;20433;-69
2022/09/03 05:02:26;;;;;;;1.63;1.17;;;20.00;43.00;;;;;;5074746;28;20995;-69
2022/09/03 05:04:53;;;;;;;1.53;1.10;;;20.00;42.90;;;;;;5074595;28;20453;-70
2022/09/03 05:07:20;;;;;;;1.43;1.23;;;20.00;42.90;;;;;;5074345;28;20806;-69
2022/09/03 05:09:46;;;;;;;1.93;1.33;;;20.00;42.90;;;;;;5075006;28;20864;-69
2022/09/03 05:12:16;;;;;;;1.20;0.90;;;20.00;42.90;;;;;;5075654;28;21014;-69
2022/09/03 05:14:43;;;;;;;3.53;1.00;;;20.00;42.90;;;;;;5076700;28;20483;-68
2022/09/03 05:17:10;;;;;;;1.83;1.17;;;20.00;42.90;;;;;;5077310;28;20571;-69
2022/09/03 05:19:36;;;;;;;1.40;1.30;;;20.00;42.90;;;;;;5076401;28;20445;-69
2022/09/03 05:22:03;;;;;;;1.57;1.20;;;20.00;42.90;;;;;;5076633;28;20445;-69
2022/09/03 05:24:30;;;;;;;3.73;1.20;;;20.00;43.00;;;;;;5076255;28;20507;-68
2022/09/03 05:26:56;;;;;;;1.00;0.90;;;20.00;43.00;;;;;;5074838;28;20904;-68
2022/09/03 05:29:25;;;;;;;1.47;1.00;;;20.00;42.90;;;;;;5075084;28;20473;-68
2022/09/03 05:31:52;;;;;;;1.17;1.07;;;20.00;42.90;;;;;;5075224;28;20464;-69
2022/09/03 05:34:19;;;;;;;0.80;0.80;;;20.00;43.60;;;;;;5075645;28;20436;-68
2022/09/03 05:36:48;;;;;;;1.97;1.40;;;20.00;42.90;;;;;;5074827;28;20449;-69
2022/09/03 05:39:15;;;;;;;1.07;0.87;;;20.00;43.00;;;;;;5073913;28;20429;-69
2022/09/03 05:41:42;;;;;;;16.53;1.63;;;20.00;43.10;;;;;;5074716;28;20456;-69
2022/09/03 05:44:09;;;;;;;2.20;1.20;;;20.00;43.10;;;;;;5074245;28;20858;-69
2022/09/03 05:46:37;;;;;;;1.60;1.50;;;20.10;43.20;;;;;;5075371;28;20445;-69
2022/09/03 05:49:05;;;;;;;1.70;1.13;;;20.00;43.00;;;;;;5074720;28;20527;-69
2022/09/03 05:51:33;;;;;;;1.83;1.30;;;20.00;43.00;;;;;;5075413;28;20545;-69
2022/09/03 05:54:01;;;;;;;1.40;1.30;;;20.10;43.30;;;;;;5075830;28;20473;-68
2022/09/03 05:56:30;;;;;;;3.90;1.30;;;20.10;43.30;;;;;;5074987;28;20944;-68
2022/09/03 05:59:00;;;;;;;2.40;1.13;;;20.10;43.30;;;;;;5075179;28;20452;-68
2022/09/03 06:01:29;;;;;;;1.40;1.27;;;20.10;43.30;;;;;;5076546;28;20445;-69
2022/09/03 06:03:59;;;;;;;3.20;1.43;;;20.10;43.40;;;;;;5075116;28;20461;-69
2022/09/03 06:06:27;;;;;;;1.93;1.40;;;20.20;43.30;;;;;;5076890;28;20451;-69
2022/09/03 06:08:56;;;;;;;2.00;1.13;;;20.20;43.40;;;;;;5077503;28;20831;-69
2022/09/03 06:11:27;;;;;;;1.33;1.10;;;20.20;43.30;;;;;;5076944;28;20464;-69
2022/09/03 06:13:55;;;;;;;2.20;1.20;;;20.20;43.20;;;;;;5077124;28;20473;-69
2022/09/03 06:16:22;;;;;;;1.80;1.03;;;20.30;43.30;;;;;;5077774;28;20491;-68
2022/09/03 06:18:50;;;;;;;2.57;1.53;;;20.20;43.30;;;;;;5077609;28;20479;-68
2022/09/03 06:21:18;;;;;;;2.07;1.43;;;20.30;43.60;;;;;;5078949;28;20452;-69
2022/09/03 06:23:50;;;;;;;1.00;0.90;;;20.30;43.70;;;;;;5078509;28;20468;-69
2022/09/03 06:26:17;;;;;;;1.70;1.10;;;20.40;43.60;;;;;;5077769;28;20479;-69
2022/09/03 06:28:44;;;;;;;1.47;1.30;;;20.40;43.40;;;;;;5078516;28;20488;-69
2022/09/03 06:31:13;;;;;;;3.60;1.27;;;20.40;43.70;;;;;;5078294;28;20453;-69
2022/09/03 06:33:41;;;;;;;1.37;1.27;;;20.40;43.80;;;;;;5077628;28;20469;-69
2022/09/03 06:36:10;;;;;;;1.33;1.23;;;20.50;43.70;;;;;;5078061;28;20448;-69
2022/09/03 06:38:39;;;;;;;2.97;1.53;;;20.60;43.20;;;;;;5078804;28;20475;-69
2022/09/03 06:41:07;;;;;;;4.23;1.10;;;20.70;43.50;;;;;;5076075;28;20970;-69
2022/09/03 06:43:35;;;;;;;5.77;1.10;;;20.70;43.20;;;;;;5078248;28;20469;-69
2022/09/03 06:46:06;;;;;;;1.87;1.10;;;20.80;43.40;;;;;;5078568;28;20457;-69
2022/09/03 06:48:35;;;;;;;2.73;1.30;;;20.80;42.90;;;;;;5076007;28;20472;-70
2022/09/03 06:51:05;;;;;;;2.13;1.60;;;20.90;43.10;;;;;;5076863;28;20785;-68
2022/09/03 06:53:34;;;;;;;4.30;1.47;;;20.90;43.20;;;;;;5076521;28;20975;-69
2022/09/03 06:56:04;;;;;;;2.90;1.30;;;20.90;42.80;;;;;;5076477;28;20959;-69
2022/09/03 06:58:33;;;;;;;1.60;1.10;;;20.90;42.80;;;;;;5076587;28;20436;-69
2022/09/03 07:01:04;;;;;;;1.23;1.13;;;20.90;43.00;;;;;;5076605;28;20453;-69
2022/09/03 07:03:31;;;;;;;1.70;1.47;;;20.90;42.90;;;;;;5076545;28;20522;-69
2022/09/03 07:06:01;;;;;;;1.80;1.00;;;21.00;43.00;;;;;;5076570;28;20445;-69
2022/09/03 07:08:28;;;;;;;1.77;1.20;;;21.10;42.70;;;;;;5076739;28;20519;-69
2022/09/03 07:10:55;;;;;;;1.33;1.23;;;21.10;42.30;;;;;;5076155;28;20944;-68
2022/09/03 07:13:23;;;;;;;2.90;1.03;;;21.20;42.50;;;;;;5078414;28;20468;-69
2022/09/03 07:15:58;;;;;;;1.77;1.10;;;21.30;42.50;;;;;;5077031;28;20866;-68
2022/09/03 07:18:25;;;;;;;4.93;1.03;;;21.30;41.90;;;;;;5076299;28;20424;-68
2022/09/03 07:20:52;;;;;;;1.13;1.03;;;21.50;42.70;;;;;;5076277;28;20449;-70
2022/09/03 07:23:19;;;;;;;1.20;1.10;;;21.50;41.70;;;;;;5076228;28;20472;-69
2022/09/03 07:25:53;;;;;;;3.40;1.43;;;21.70;41.60;;;;;;5076286;28;20446;-70
2022/09/03 07:28:20;;;;;;;2.13;1.20;;;21.80;40.80;;;;;;5076251;28;20472;-69
2022/09/03 07:30:48;;;;;;;1.20;1.07;;;21.90;40.70;;;;;;5076100;28;20453;-70
2022/09/03 07:33:16;;;;;;;2.10;1.13;;;22.00;40.40;;;;;;5075927;28;20460;-70
2022/09/03 07:35:42;;;;;;;1.63;0.97;;;22.20;40.10;;;;;;5075773;28;20909;-70
2022/09/03 07:38:09;;;;;;;1.80;1.00;;;22.20;40.20;;;;;;5075576;28;20461;-70
2022/09/03 07:40:38;;;;;;;4.57;1.57;;;22.40;40.20;;;;;;5076129;28;20449;-70
2022/09/03 07:43:04;;;;;;;1.97;1.20;;;22.30;40.20;;;;;;5075820;28;20580;-70
2022/09/03 07:45:32;;;;;;;0.80;0.80;;;22.30;39.80;;;;;;5076033;28;20449;-70
2022/09/03 07:48:00;;;;;;;1.50;1.20;;;22.30;40.10;;;;;;5075756;28;20455;-69
2022/09/03 07:50:29;;;;;;;2.40;1.17;;;22.40;40.20;;;;;;5076023;28;20453;-69
2022/09/03 07:52:57;;;;;;;1.20;1.10;;;22.50;40.30;;;;;;5075606;28;20540;-70
2022/09/03 07:55:24;;;;;;;3.90;1.30;;;22.60;40.20;;;;;;5076028;28;20551;-70
2022/09/03 07:57:56;;;;;;;3.70;0.97;;;22.70;39.50;;;;;;5076080;28;20452;-71
2022/09/03 08:00:25;;;;;;;1.50;1.10;;;22.90;39.60;;;;;;5075541;28;20441;-71
2022/09/03 08:02:52;;;;;;;2.07;1.10;;;23.00;39.50;;;;;;5076059;28;20560;-71
2022/09/03 08:05:21;;;;;;;1.13;1.03;;;22.90;39.00;;;;;;5075913;28;20453;-71
2022/09/03 08:07:50;;;;;;;2.40;1.20;;;23.00;39.40;;;;;;5076571;28;20456;-74
2022/09/03 08:10:16;;;;;;;1.40;1.23;;;23.00;39.30;;;;;;5077530;28;20477;-72
2022/09/03 08:12:43;;;;;;;1.43;0.97;;;23.00;39.00;;;;;;5075872;28;21018;-71
2022/09/03 08:15:10;;;;;;;1.10;0.93;;;23.10;39.10;;;;;;5076141;28;20453;-72
2022/09/03 08:17:37;;;;;;;5.40;1.70;;;23.20;39.30;;;;;;5076766;28;20480;-72
2022/09/03 08:20:05;;;;;;;1.77;1.40;;;23.30;38.90;;;;;;5076790;28;20441;-75
2022/09/03 08:22:33;;;;;;;4.70;1.67;;;23.40;38.60;;;;;;5076526;28;20473;-72
2022/09/03 08:25:00;;;;;;;0.93;0.80;;;23.40;38.60;;;;;;5075808;28;20968;-73
2022/09/03 08:27:27;;;;;;;1.53;1.40;;;23.30;38.80;;;;;;5075974;28;20492;-73
2022/09/03 08:29:55;;;;;;;1.93;1.10;;;23.40;38.80;;;;;;5075828;28;20486;-74
2022/09/03 08:32:22;;;;;;;1.67;1.30;;;23.40;39.10;;;;;;5075876;28;20476;-73
2022/09/03 08:34:49;;;;;;;2.00;1.30;;;23.40;39.00;;;;;;5075754;28;20444;-73
2022/09/03 08:37:16;;;;;;;1.40;1.30;;;23.50;38.60;;;;;;5075690;28;20518;-71
2022/09/03 08:39:45;;;;;;;1.97;1.30;;;23.50;38.60;;;;;;5075979;28;20460;-71
2022/09/03 08:42:40;;;;;;;4.43;1.10;;;23.50;38.70;;;;;;5076032;28;20469;-72
2022/09/03 08:45:10;;;;;;;1.90;1.70;;;23.60;38.70;;;;;;5075644;28;20425;-72
2022/09/03 08:47:42;;;;;;;4.83;1.93;;;23.70;38.40;;;;;;5075927;28;20429;-73
2022/09/03 08:50:16;;;;;;;4.27;1.90;;;23.80;38.60;;;;;;5075470;28;20479;-72
2022/09/03 08:52:47;;;;;;;5.53;1.77;;;24.00;38.90;;;;;;5075547;28;20925;-72
2022/09/03 08:55:22;;;;;;;2.47;1.27;;;24.10;38.60;;;;;;5075685;28;20876;-73
2022/09/03 08:57:52;;;;;;;4.30;1.10;;;24.40;38.50;;;;;;5076373;28;20900;-72
2022/09/03 09:00:19;;;;;;;3.50;1.60;;;24.60;38.00;;;;;;5076192;28;20456;-72
2022/09/03 09:02:55;;;;;;;2.23;1.90;;;24.80;37.70;;;;;;5076549;28;20472;-70
2022/09/03 09:05:30;;;;;;;3.43;1.40;;;25.00;37.40;;;;;;5074745;28;20448;-70
2022/09/03 09:08:04;;;;;;;1.30;1.20;;;25.10;37.40;;;;;;5074823;28;20432;-71
2022/09/03 09:10:38;;;;;;;3.80;1.73;;;25.20;37.20;;;;;;5074514;28;20460;-71
2022/09/03 09:13:16;;;;;;;5.20;1.30;;;25.30;37.20;;;;;;5074291;28;20472;-71
2022/09/03 09:15:52;;;;;;;3.97;1.50;;;25.40;37.30;;;;;;5074115;28;20471;-70
2022/09/03 09:18:27;;;;;;;3.07;1.33;;;25.40;37.50;;;;;;5074161;28;20433;-70
2022/09/03 09:20:59;;;;;;;2.73;1.30;;;25.60;37.80;;;;;;5074075;28;20433;-70
2022/09/03 09:23:31;;;;;;;2.70;1.40;;;25.90;36.70;;;;;;5074245;28;20462;-71
2022/09/03 09:26:01;;;;;;;3.87;1.33;;;26.10;36.50;;;;;;5073829;28;20443;-71
2022/09/03 09:28:33;;;;;;;1.97;1.33;;;26.40;36.00;;;;;;5074529;28;20426;-72
2022/09/03 09:31:02;;;;;;;2.67;1.53;;;26.50;35.70;;;;;;5073960;28;20436;-71
2022/09/03 09:33:32;;;;;;;4.03;1.77;;;26.70;35.80;;;;;;5074278;28;20468;-71
2022/09/03 09:36:00;;;;;;;3.00;1.10;;;26.80;35.50;;;;;;5073837;28;20510;-70
2022/09/03 09:38:29;;;;;;;1.63;1.37;;;27.00;35.30;;;;;;5073782;28;20460;-71
2022/09/03 09:40:57;;;;;;;1.00;1.00;;;27.10;35.40;;;;;;5074011;28;20819;-70
2022/09/03 09:43:26;;;;;;;2.00;1.63;;;27.40;35.50;;;;;;5073693;28;21048;-71
2022/09/03 09:45:54;;;;;;;2.83;1.67;;;27.50;35.00;;;;;;5073813;28;20453;-72
2022/09/03 09:48:30;;;;;;;4.23;1.30;;;27.60;34.70;;;;;;5074272;28;20552;-72
2022/09/03 09:51:08;;;;;;;2.43;1.50;;;27.70;34.40;;;;;;5074232;28;20476;-70
2022/09/03 09:53:38;;;;;;;2.40;2.17;;;27.70;34.20;;;;;;5073609;28;20481;-70
2022/09/03 09:56:05;;;;;;;7.37;1.80;;;27.70;34.00;;;;;;5073756;28;20484;-70
2022/09/03 09:58:35;;;;;;;2.43;2.03;;;27.60;34.30;;;;;;5073827;28;20445;-70
2022/09/03 10:01:11;;;;;;;3.03;1.63;;;27.50;34.50;;;;;;5073870;28;20481;-70
2022/09/03 10:03:48;;;;;;;1.97;1.60;;;27.50;34.60;;;;;;5073969;28;20566;-70
2022/09/03 10:09:11;;;;;;;1.70;1.33;;;27.80;34.90;;;;;;5073638;28;21013;-68
2022/09/03 10:11:42;;;;;;;3.13;1.90;;;28.00;34.80;;;;;;5073615;28;20443;-68
2022/09/03 10:14:18;;;;;;;5.53;2.00;;;28.20;33.90;;;;;;5074409;28;20477;-67
2022/09/03 10:16:49;;;;;;;1.97;1.77;;;28.30;33.80;;;;;;5073376;28;20786;-70
2022/09/03 10:19:19;;;;;;;6.93;2.30;;;28.50;33.80;;;;;;5073548;28;20459;-71
2022/09/03 10:21:55;;;;;;;2.83;1.60;;;28.70;33.00;;;;;;5073891;28;20437;-68
2022/09/03 10:24:38;;;;;;;2.37;2.10;;;28.90;33.30;;;;;;5075849;28;20454;-69
2022/09/03 10:27:06;;;;;;;7.73;1.70;;;29.40;32.50;;;;;;5078438;28;20437;-69
2022/09/03 10:29:39;;;;;;;1.77;1.37;;;30.00;32.60;;;;;;5078811;28;20523;-69
2022/09/03 10:35:23;;;;;;;4.67;1.63;;;31.40;29.80;;;;;;5009949;28;20996;-69
2022/09/03 10:38:03;;;;;;;3.37;2.00;;;32.40;29.20;;;;;;5079627;28;20456;-69
2022/09/03 10:40:35;;;;;;;2.83;2.07;;;33.10;28.20;;;;;;5079164;28;20428;-69
2022/09/03 10:43:20;;;;;;;2.60;1.80;;;33.80;26.40;;;;;;5079489;28;20818;-69
2022/09/03 10:46:00;;;;;;;3.53;1.90;;;34.00;26.00;;;;;;5080108;28;20456;-69
2022/09/03 10:48:44;;;;;;;2.27;1.63;;;34.30;26.40;;;;;;5080572;28;20534;-69
2022/09/03 10:51:19;;;;;;;4.00;1.70;;;34.80;26.20;;;;;;5080131;28;20464;-69
2022/09/03 10:54:10;;;;;;;4.97;1.77;;;35.20;25.90;;;;;;5079507;28;20475;-69
2022/09/03 10:56:46;;;;;;;3.70;2.40;;;35.70;24.70;;;;;;5082758;28;20440;-69
2022/09/03 10:59:29;;;;;;;2.03;1.80;;;36.10;24.30;;;;;;5081997;28;20436;-70
2022/09/03 11:02:08;;;;;;;3.93;2.10;;;36.60;23.80;;;;;;5080551;28;20428;-69
2022/09/03 11:04:43;;;;;;;3.20;2.07;;;37.00;23.60;;;;;;5078026;28;20481;-69
2022/09/03 11:07:13;;;;;;;2.90;1.90;;;37.20;22.50;;;;;;5080225;28;20448;-70
2022/09/03 11:09:43;;;;;;;2.50;1.70;;;37.50;22.90;;;;;;5088953;28;20206;-70
2022/09/03 11:12:16;;;;;;;2.50;1.73;;;37.70;23.00;;;;;;5077712;28;20222;-70
2022/09/03 11:14:46;;;;;;;1.87;1.60;;;37.70;22.10;;;;;;5075367;28;20208;-70
2022/09/03 11:17:21;;;;;;;1.83;1.60;;;37.70;21.90;;;;;;5076536;28;20546;-69
2022/09/03 11:19:52;;;;;;;2.77;2.07;;;37.50;22.10;;;;;;5077455;28;20542;-68
2022/09/03 11:22:22;;;;;;;2.43;2.00;;;37.40;22.70;;;;;;5079107;28;20226;-68
2022/09/03 11:24:57;;;;;;;2.90;2.27;;;37.60;22.60;;;;;;5078411;28;20202;-68
2022/09/03 11:27:45;;;;;;;3.80;2.20;;;37.90;22.50;;;;;;5084882;28;20208;-69
2022/09/03 11:30:14;;;;;;;3.30;2.00;;;38.20;22.10;;;;;;5090691;28;20217;-70
2022/09/03 11:32:51;;;;;;;2.83;1.60;;;38.20;22.20;;;;;;5080438;28;20262;-69
2022/09/03 11:35:28;;;;;;;6.60;1.80;;;38.20;21.90;;;;;;5078838;28;20245;-69
2022/09/03 11:37:59;;;;;;;2.23;2.03;;;38.00;22.10;;;;;;5079199;28;20213;-69
2022/09/03 11:40:32;;;;;;;2.77;2.57;;;37.80;22.40;;;;;;5077648;28;20187;-69
2022/09/03 11:43:10;;;;;;;2.57;2.07;;;37.70;22.80;;;;;;5076656;28;20218;-69
2022/09/03 11:45:38;;;;;;;2.20;2.00;;;37.80;22.70;;;;;;5080657;28;20190;-69
2022/09/03 11:48:28;;;;;;;5.53;2.07;;;37.80;22.80;;;;;;5078334;28;20206;-69
2022/09/03 11:50:56;;;;;;;2.83;2.37;;;37.60;22.80;;;;;;5080520;28;20212;-69
2022/09/03 11:53:26;;;;;;;4.07;2.23;;;37.50;23.20;;;;;;5079204;28;20222;-69
2022/09/03 11:55:55;;;;;;;2.43;2.20;;;37.70;22.70;;;;;;5078926;28;20568;-69
2022/09/03 11:58:25;;;;;;;2.90;2.37;;;38.00;22.50;;;;;;5079567;28;20309;-69
2022/09/03 12:00:53;;;;;;;2.50;2.10;;;38.20;22.10;;;;;;5078802;28;20186;-70
2022/09/03 12:03:27;;;;;;;2.10;2.00;;;38.50;21.80;;;;;;5077995;28;20283;-69
2022/09/03 12:06:11;;;;;;;2.40;1.90;;;38.70;21.90;;;;;;5078070;28;20216;-69
2022/09/03 12:09:04;;;;;;;3.10;2.03;;;39.10;21.70;;;;;;5078259;28;20584;-70
2022/09/03 12:11:44;;;;;;;2.83;2.10;;;39.80;21.70;;;;;;5077896;28;20234;-70
2022/09/03 12:14:19;;;;;;;2.05;1.52;;;40.60;20.70;;;;;;5078020;28;20192;-69
2022/09/03 12:16:57;;;;;;;2.28;2.08;;;41.40;20.10;;;;;;5078212;28;20194;-69
2022/09/03 12:19:35;;;;;;;3.60;2.00;;;42.00;18.80;;;;;;5077203;28;20190;-68
2022/09/03 12:22:03;;;;;;;2.97;1.73;;;42.60;18.80;;;;;;5078169;28;20193;-68
2022/09/03 12:24:34;;;;;;;2.75;2.03;;;43.20;18.40;;;;;;5079628;28;20244;-68
2022/09/03 12:27:02;;;;;;;2.97;1.95;;;43.70;17.70;;;;;;5079799;28;20194;-69
2022/09/03 12:29:30;;;;;;;4.35;1.73;;;44.00;17.50;;;;;;5077748;28;20204;-69
2022/09/03 12:32:06;;;;;;;5.63;1.90;;;44.20;17.40;;;;;;5077717;28;20206;-69
2022/09/03 12:34:34;;;;;;;3.72;1.85;;;44.60;17.20;;;;;;5077471;28;20190;-69
2022/09/03 12:37:02;;;;;;;5.82;2.13;;;45.00;16.40;;;;;;5074847;28;20214;-69
2022/09/03 12:39:30;;;;;;;2.67;1.90;;;44.70;16.50;;;;;;5075142;28;20202;-69
2022/09/03 12:42:02;;;;;;;4.47;1.88;;;44.30;17.00;;;;;;5074958;28;20213;-69
2022/09/03 12:44:31;;;;;;;3.15;1.77;;;44.30;17.30;;;;;;5075533;28;20214;-69
2022/09/03 12:47:03;;;;;;;5.28;1.88;;;44.30;17.10;;;;;;5074609;28;20201;-69
2022/09/03 12:49:36;;;;;;;3.33;2.00;;;44.50;17.10;;;;;;5075107;28;20202;-69
2022/09/03 12:52:11;;;;;;;2.17;1.92;;;44.50;16.90;;;;;;5074660;28;20646;-68
2022/09/03 12:54:44;;;;;;;2.65;1.85;;;44.40;17.10;;;;;;5074742;28;20189;-69
2022/09/03 12:57:13;;;;;;;3.42;1.77;;;44.50;16.90;;;;;;5074743;28;20193;-69
2022/09/03 12:59:40;;;;;;;1.88;1.70;;;44.60;16.60;;;;;;5074609;28;20198;-69
2022/09/03 13:02:17;;;;;;;4.80;1.85;;;44.80;16.70;;;;;;5075502;28;20221;-73
2022/09/03 13:04:47;;;;;;;2.22;1.65;;;45.00;16.60;;;;;;5075786;28;20190;-72
2022/09/03 13:07:23;;;;;;;2.30;1.90;;;44.90;16.50;;;;;;5076900;28;20213;-72
2022/09/03 13:09:50;;;;;;;1.75;1.65;;;44.90;16.60;;;;;;5078398;28;20190;-69
2022/09/03 13:12:23;;;;;;;2.08;1.60;;;44.90;16.40;;;;;;5080810;28;20229;-69
2022/09/03 13:14:50;;;;;;;4.32;1.95;;;44.90;16.40;;;;;;5085307;28;20189;-69